createdAt,value
2019-01-19T00:02:25.284Z,13.07
2019-01-19T00:07:36.080Z,15.87
2019-01-19T00:12:50.092Z,13.80
2019-01-19T00:18:17.277Z,15.40
2019-01-19T00:23:34.619Z,13.50
2019-01-19T00:28:39.742Z,12.17
2019-01-19T00:33:39.039Z,13.63
2019-01-19T00:38:52.825Z,13.13
2019-01-19T00:43:50.037Z,12.77
2019-01-19T00:48:54.435Z,11.73
2019-01-19T00:54:08.575Z,11.53
2019-01-19T00:59:07.763Z,13.03
2019-01-19T01:04:33.426Z,14.80
2019-01-19T01:10:21.118Z,15.77
2019-01-19T01:15:56.496Z,13.97
2019-01-19T01:21:22.768Z,13.77
2019-01-19T01:26:45.852Z,14.93
2019-01-19T01:31:56.740Z,15.20
2019-01-19T01:36:58.763Z,14.47
2019-01-19T01:42:15.894Z,18.60
2019-01-19T01:47:36.218Z,15.07
2019-01-19T01:53:05.163Z,17.63
2019-01-19T01:58:04.344Z,19.40
2019-01-19T02:03:09.493Z,13.00
2019-01-19T02:08:11.453Z,11.37
2019-01-19T02:13:27.169Z,13.57
2019-01-19T02:19:04.195Z,13.23
2019-01-19T02:24:11.925Z,14.60
2019-01-19T02:29:23.203Z,14.87
2019-01-19T02:34:36.602Z,18.83
2019-01-19T02:39:41.420Z,15.40
2019-01-19T02:44:43.307Z,14.50
2019-01-19T02:49:49.733Z,13.57
2019-01-19T02:55:18.872Z,12.77
2019-01-19T03:00:59.026Z,17.30
2019-01-19T03:06:09.903Z,14.00
2019-01-19T03:11:43.837Z,15.73
2019-01-19T03:16:51.906Z,17.57
2019-01-19T03:22:05.910Z,15.07
2019-01-19T03:27:13.175Z,12.33
2019-01-19T03:32:24.037Z,13.27
2019-01-19T03:37:38.548Z,14.43
2019-01-19T03:43:04.676Z,13.90
2019-01-19T03:48:29.188Z,20.20
2019-01-19T03:53:49.711Z,17.83
2019-01-19T03:59:03.243Z,15.23
2019-01-19T04:04:32.171Z,17.23
2019-01-19T04:09:45.825Z,19.27
2019-01-19T04:15:19.655Z,19.97
2019-01-19T04:20:30.246Z,20.57
2019-01-19T04:25:29.791Z,21.80
2019-01-19T04:30:24.565Z,25.37
2019-01-19T04:35:19.186Z,22.90
2019-01-19T04:40:14.512Z,21.93
2019-01-19T04:45:09.939Z,23.03
2019-01-19T04:50:07.064Z,22.50
2019-01-19T04:55:01.675Z,21.20
2019-01-19T04:59:56.301Z,23.13
2019-01-19T05:04:50.940Z,26.60
2019-01-19T05:09:45.640Z,25.93
2019-01-19T05:14:40.265Z,25.33
2019-01-19T05:19:34.889Z,25.50
2019-01-19T05:24:29.491Z,24.67
2019-01-19T05:29:24.107Z,26.10
2019-01-19T05:34:18.730Z,25.50
2019-01-19T05:39:13.350Z,25.40
2019-01-19T05:44:07.968Z,24.30
2019-01-19T05:49:02.597Z,33.33
2019-01-19T05:53:57.210Z,24.13
2019-01-19T05:58:51.836Z,26.93
2019-01-19T06:03:46.449Z,28.10
2019-01-19T06:08:41.094Z,26.60
2019-01-19T06:13:35.706Z,25.00
2019-01-19T06:18:31.988Z,25.63
2019-01-19T06:23:26.653Z,21.77
2019-01-19T06:28:21.299Z,25.57
2019-01-19T06:33:15.937Z,27.63
2019-01-19T06:38:10.556Z,28.57
2019-01-19T06:43:05.244Z,26.53
2019-01-19T06:47:59.877Z,25.10
2019-01-19T06:52:54.549Z,26.03
2019-01-19T06:57:49.283Z,27.93
2019-01-19T07:02:44.012Z,25.83
2019-01-19T07:07:38.628Z,26.03
2019-01-19T07:12:33.275Z,24.47
2019-01-19T07:17:27.986Z,28.27
2019-01-19T07:22:22.606Z,28.50
2019-01-19T07:27:17.223Z,30.37
2019-01-19T07:32:11.961Z,29.93
2019-01-19T07:37:09.866Z,27.47
2019-01-19T07:42:03.136Z,25.83
2019-01-19T07:46:59.020Z,26.40
2019-01-19T07:51:53.667Z,29.60
2019-01-19T07:56:48.343Z,26.17
2019-01-19T08:01:42.963Z,24.43
2019-01-19T08:06:37.578Z,23.57
2019-01-19T08:11:32.199Z,25.63
2019-01-19T08:16:26.783Z,24.20
2019-01-19T08:21:21.404Z,27.83
2019-01-19T08:26:16.010Z,28.07
2019-01-19T08:31:10.619Z,23.00
2019-01-19T08:36:05.926Z,20.63
2019-01-19T08:41:00.581Z,20.90
2019-01-19T08:45:55.192Z,17.03
2019-01-19T08:50:49.873Z,18.37
2019-01-19T08:55:44.551Z,19.80
2019-01-19T09:00:39.161Z,19.87
2019-01-19T09:05:33.771Z,21.23
2019-01-19T09:10:28.534Z,19.87
2019-01-19T09:15:25.952Z,22.20
2019-01-19T09:20:20.719Z,20.07
2019-01-19T09:25:18.432Z,20.33
2019-01-19T09:30:17.415Z,18.60
2019-01-19T09:35:12.649Z,20.07
2019-01-19T09:40:17.250Z,17.93
2019-01-19T09:45:15.381Z,21.33
2019-01-19T09:50:17.337Z,17.53
2019-01-19T09:55:12.230Z,21.03
2019-01-19T10:00:26.509Z,22.00
2019-01-19T10:05:28.619Z,20.17
2019-01-19T10:10:23.463Z,17.10
2019-01-19T10:15:20.364Z,20.93
2019-01-19T10:20:27.696Z,20.07
2019-01-19T10:25:22.417Z,22.93
2019-01-19T10:30:29.059Z,19.20
2019-01-19T10:35:23.683Z,21.70
2019-01-19T10:40:19.396Z,22.50
2019-01-19T10:45:23.912Z,19.67
2019-01-19T10:50:20.325Z,17.53
2019-01-19T10:55:23.204Z,18.43
2019-01-19T11:00:33.925Z,20.70
2019-01-19T11:05:29.346Z,20.27
2019-01-19T11:10:33.415Z,23.83
2019-01-19T11:15:30.727Z,26.17
2019-01-19T11:20:31.487Z,18.93
2019-01-19T11:25:26.512Z,22.93
2019-01-19T11:30:28.330Z,19.63
2019-01-19T11:35:23.919Z,21.77
2019-01-19T11:40:26.589Z,19.83
2019-01-19T11:45:23.665Z,22.07
2019-01-19T11:50:19.160Z,26.60
2019-01-19T11:55:19.043Z,17.57
2019-01-19T12:00:24.606Z,14.87
2019-01-19T12:05:19.411Z,19.30
2019-01-19T12:10:30.313Z,17.73
2019-01-19T12:15:25.622Z,17.93
2019-01-19T12:20:35.981Z,17.97
2019-01-19T12:25:31.067Z,16.70
2019-01-19T12:30:30.245Z,17.07
2019-01-19T12:35:25.777Z,16.13
2019-01-19T12:40:26.911Z,17.30
2019-01-19T12:45:32.688Z,16.43
2019-01-19T12:50:28.800Z,15.73
2019-01-19T12:55:24.174Z,18.27
2019-01-19T13:00:23.486Z,18.20
2019-01-19T13:05:23.249Z,21.00
2019-01-19T13:10:25.787Z,18.03
2019-01-19T13:15:52.029Z,18.63
2019-01-19T13:21:23.852Z,18.63
2019-01-19T13:26:51.303Z,18.90
2019-01-19T13:32:18.518Z,17.87
2019-01-19T13:37:43.022Z,18.63
2019-01-19T13:42:56.676Z,18.90
2019-01-19T13:48:07.560Z,18.33
2019-01-19T13:53:30.479Z,17.17
2019-01-19T13:58:46.296Z,19.27
2019-01-19T14:04:07.977Z,18.80
2019-01-19T14:09:12.884Z,19.43
2019-01-19T14:14:47.941Z,20.90
2019-01-19T14:19:52.701Z,19.57
2019-01-19T14:24:57.846Z,19.67
2019-01-19T14:30:28.463Z,22.87
2019-01-19T14:35:33.582Z,21.67
2019-01-19T14:40:47.508Z,20.17
2019-01-19T14:45:46.733Z,20.50
2019-01-19T14:51:14.579Z,21.93
2019-01-19T14:56:30.321Z,21.90
2019-01-19T15:02:05.183Z,21.67
2019-01-19T15:07:35.657Z,21.17
2019-01-19T15:12:43.935Z,19.43
2019-01-19T15:17:43.158Z,22.67
2019-01-19T15:22:53.994Z,21.27
2019-01-19T15:28:29.225Z,20.53
2019-01-19T15:33:58.483Z,21.43
2019-01-19T15:38:57.675Z,24.10
2019-01-19T15:44:31.502Z,20.63
2019-01-19T15:49:48.863Z,23.60
2019-01-19T15:55:02.806Z,26.47
2019-01-19T16:00:23.095Z,22.20
2019-01-19T16:05:37.141Z,24.03
2019-01-19T16:10:42.191Z,26.83
2019-01-19T16:15:52.998Z,26.27
2019-01-19T16:21:06.812Z,25.53
2019-01-19T16:26:29.787Z,29.77
2019-01-19T16:31:34.544Z,26.50
2019-01-19T16:36:54.168Z,23.87
2019-01-19T16:42:10.710Z,26.13
2019-01-19T16:47:34.063Z,33.47
2019-01-19T16:52:50.934Z,33.77
2019-01-19T16:58:08.307Z,27.03
2019-01-19T17:03:13.440Z,25.53
2019-01-19T17:08:27.279Z,26.20
2019-01-19T17:13:28.950Z,27.57
2019-01-19T17:18:33.747Z,28.57
2019-01-19T17:23:47.982Z,29.80
2019-01-19T17:29:16.082Z,26.20
2019-01-19T17:34:42.605Z,31.80
2019-01-19T17:39:50.640Z,26.73
2019-01-19T17:45:10.598Z,27.33
2019-01-19T17:50:33.131Z,24.77
2019-01-19T17:56:02.500Z,26.87
2019-01-19T18:01:30.108Z,25.53
2019-01-19T18:06:40.827Z,29.27
2019-01-19T18:12:09.970Z,28.53
2019-01-19T18:17:23.295Z,34.47
2019-01-19T18:22:34.357Z,28.63
2019-01-19T18:27:33.567Z,29.70
2019-01-19T18:32:53.577Z,28.50
2019-01-19T18:38:10.317Z,26.53
2019-01-19T18:43:18.350Z,30.97
2019-01-19T18:48:20.352Z,28.23
2019-01-19T18:53:37.232Z,31.30
2019-01-19T18:59:04.976Z,35.70
2019-01-19T19:04:19.372Z,31.97
2019-01-19T19:09:36.573Z,37.27
2019-01-19T19:14:41.188Z,33.77
2019-01-19T19:19:58.507Z,33.93
2019-01-19T19:25:25.952Z,35.07
2019-01-19T19:30:25.136Z,36.03
2019-01-19T19:35:46.726Z,34.40
2019-01-19T19:41:14.384Z,35.37
2019-01-19T19:46:19.506Z,34.87
2019-01-19T19:51:37.844Z,36.97
2019-01-19T19:56:30.746Z,34.37
2019-01-19T20:01:25.434Z,36.60
2019-01-19T20:06:20.131Z,35.37
2019-01-19T20:11:14.854Z,38.33
2019-01-19T20:16:09.824Z,35.03
2019-01-19T20:21:04.555Z,37.83
2019-01-19T20:25:59.181Z,35.67
2019-01-19T20:30:53.813Z,33.83
2019-01-19T20:35:48.453Z,38.07
2019-01-19T20:40:43.059Z,36.33
2019-01-19T20:45:37.742Z,37.13
2019-01-19T20:50:32.361Z,41.07
2019-01-19T20:55:27.062Z,39.47
2019-01-19T21:00:22.192Z,39.43
2019-01-19T21:05:16.883Z,41.80
2019-01-19T21:10:11.808Z,38.93
2019-01-19T21:15:15.247Z,39.13
2019-01-19T21:20:14.013Z,36.30
2019-01-19T21:25:11.530Z,34.53
2019-01-19T21:30:10.746Z,38.97
2019-01-19T21:35:07.490Z,38.07
2019-01-19T21:40:02.119Z,37.93
2019-01-19T21:44:56.785Z,35.20
2019-01-19T21:49:51.411Z,36.50
2019-01-19T21:54:46.082Z,35.63
2019-01-19T21:59:40.742Z,36.07
2019-01-19T22:04:35.396Z,43.03
2019-01-19T22:09:30.008Z,39.47
2019-01-19T22:14:24.679Z,41.33
2019-01-19T22:19:19.304Z,40.00
2019-01-19T22:24:13.908Z,36.50
2019-01-19T22:29:08.763Z,36.57
2019-01-19T22:34:03.436Z,40.17
2019-01-19T22:38:58.118Z,40.07
2019-01-19T22:43:52.759Z,41.43
2019-01-19T22:48:47.385Z,38.27
2019-01-19T22:53:41.984Z,38.07
2019-01-19T22:58:36.680Z,38.20
2019-01-19T23:03:33.378Z,37.80
2019-01-19T23:08:28.071Z,40.00
2019-01-19T23:13:22.697Z,40.77
2019-01-19T23:18:17.433Z,47.63
2019-01-19T23:23:12.088Z,43.80
2019-01-19T23:28:06.788Z,41.67
2019-01-19T23:33:01.421Z,46.13
2019-01-19T23:37:56.042Z,44.70
2019-01-19T23:42:50.716Z,41.97
2019-01-19T23:47:45.340Z,51.03
2019-01-19T23:52:40.006Z,49.57
2019-01-19T23:57:34.705Z,51.07
